Ürümqi Diwopu International Airport
ZWWW : now visible

Airfield :











YOU CAN JOIN US ON...

 
LOGIN :

Register | Disclaimer

   EN    FR    IT 

 









Legend :    VFR   Marginal VFR   IFR   Intensive IFR   Very Intensive IFR
Visi :
Ceiling :
>= 8 km
>= 3000ft
5 to 8 km
1000 to 3000 ft
1500m to 5 km
500 to 1000 ft
800 to 1500m
200 to 500 ft
< 800m
< 200 ft
Symbols :   Thunderstorms  Fog  Heavy snow  Heavy precipitations  Wind > 20 kt






- Airport Elevation : 2125 ft
- IATA code : URC


ZWWW - Ürümqi Diwopu International

CURRENT METAR :
  • 200500Z 36002MPS CAVOK M01/M08 Q1037 NOSIG

EXPIRED METARs :
  • 200430Z 35002MPS CAVOK M02/M08 Q1037 NOSIG
  • 200400Z 35002MPS CAVOK M03/M08 Q1037 NOSIG
  • 200330Z 35001MPS CAVOK M03/M08 Q1038 NOSIG
  • 200300Z VRB01MPS CAVOK M04/M09 Q1038 NOSIG
  • 200230Z 13002MPS 110V170 CAVOK M03/M09 Q1038 NOSIG

TAF TAF ZWWW
Valid from the 20 at 00:00 until the 21 at 00:00 UTC


192104Z 2000/2024 18002MPS 6000 NSC TX02/2009Z TNM10/2023Z
BECMG 2003/2004 36002MPS
BECMG 2013/2014 18002MPS 2500 BR



MET'MAP, your aeronautical weather chart ! - Copyright ORBIFLY December 2007 - Disclaimer

ORBIFLY MET'MAP TEAM :

Programming & Development : Alexandra Zaïnal
Concept & original design : Baudouin d'Aumeries
Assistance for programming : Marc-Olivier Méhu
Technical & hardware support : Manuel Goepfert

Contact : metmap@orbifly.com




SOURCES & CREDITS :

   NOAA       Earth
Advisory